createdAt,value
2018-11-21T00:02:13.829Z,8.53
2018-11-21T00:04:40.703Z,8.90
2018-11-21T00:07:09.268Z,8.75
2018-11-21T00:09:36.520Z,9.93
2018-11-21T00:12:03.324Z,10.03
2018-11-21T00:14:30.271Z,8.90
2018-11-21T00:16:57.157Z,13.78
2018-11-21T00:19:24.028Z,7.75
2018-11-21T00:21:50.483Z,10.60
2018-11-21T00:24:17.373Z,7.95
2018-11-21T00:26:43.917Z,10.28
2018-11-21T00:29:14.408Z,11.20
2018-11-21T00:31:39.037Z,8.83
2018-11-21T00:34:06.040Z,9.60
2018-11-21T00:36:33.065Z,10.90
2018-11-21T00:38:59.638Z,10.63
2018-11-21T00:41:26.423Z,9.58
2018-11-21T00:43:52.984Z,8.25
2018-11-21T00:46:19.583Z,10.25
2018-11-21T00:48:46.425Z,8.18
2018-11-21T00:51:13.984Z,7.83
2018-11-21T00:53:40.856Z,10.48
2018-11-21T00:56:07.582Z,10.53
2018-11-21T00:58:34.634Z,7.83
2018-11-21T01:01:01.497Z,9.35
2018-11-21T01:03:28.319Z,7.92
2018-11-21T01:05:55.077Z,9.03
2018-11-21T01:08:21.901Z,8.60
2018-11-21T01:10:48.482Z,9.70
2018-11-21T01:13:15.392Z,10.40
2018-11-21T01:15:42.225Z,14.73
2018-11-21T01:18:09.090Z,10.60
2018-11-21T01:20:35.961Z,10.10
2018-11-21T01:23:03.005Z,12.33
2018-11-21T01:25:29.859Z,9.60
2018-11-21T01:27:56.874Z,9.90
2018-11-21T01:30:23.479Z,7.10
2018-11-21T01:32:50.071Z,8.08
2018-11-21T01:35:16.731Z,7.15
2018-11-21T01:37:43.336Z,9.50
2018-11-21T01:40:10.175Z,7.70
2018-11-21T01:42:37.083Z,6.90
2018-11-21T01:45:04.023Z,10.28
2018-11-21T01:47:30.982Z,8.85
2018-11-21T01:49:58.039Z,7.28
2018-11-21T01:52:25.391Z,9.43
2018-11-21T01:54:52.343Z,8.73
2018-11-21T01:57:19.072Z,7.67
2018-11-21T01:59:45.911Z,6.22
2018-11-21T02:02:12.948Z,9.03
2018-11-21T02:04:39.838Z,7.55
2018-11-21T02:07:06.829Z,8.15
2018-11-21T02:09:33.869Z,6.90
2018-11-21T02:12:00.425Z,9.10
2018-11-21T02:14:27.042Z,6.80
2018-11-21T02:16:54.053Z,6.72
2018-11-21T02:19:20.717Z,6.60
2018-11-21T02:21:47.476Z,5.95
2018-11-21T02:24:14.280Z,6.78
2018-11-21T02:26:41.010Z,7.30
2018-11-21T02:29:07.826Z,8.00
2018-11-21T02:31:34.417Z,7.72
2018-11-21T02:34:01.043Z,8.85
2018-11-21T02:36:28.037Z,5.83
2018-11-21T02:38:55.025Z,7.95
2018-11-21T02:41:21.584Z,7.45
2018-11-21T02:43:48.379Z,6.35
2018-11-21T02:46:15.004Z,7.15
2018-11-21T02:48:42.010Z,9.53
2018-11-21T02:51:08.770Z,12.93
2018-11-21T02:53:35.792Z,7.58
2018-11-21T02:56:02.463Z,8.10
2018-11-21T02:58:29.260Z,6.55
2018-11-21T03:00:56.090Z,9.95
2018-11-21T03:03:22.800Z,8.95
2018-11-21T03:05:49.543Z,8.80
2018-11-21T03:08:16.385Z,8.30
2018-11-21T03:10:43.230Z,7.00
2018-11-21T03:13:10.103Z,6.90
2018-11-21T03:15:37.131Z,7.75
2018-11-21T03:18:04.041Z,6.47
2018-11-21T03:20:30.802Z,6.42
2018-11-21T03:22:57.750Z,7.53
2018-11-21T03:25:24.766Z,8.65
2018-11-21T03:27:51.610Z,6.97
2018-11-21T03:30:18.287Z,10.08
2018-11-21T03:32:45.427Z,7.08
2018-11-21T03:35:12.403Z,8.35
2018-11-21T03:37:39.018Z,8.50
2018-11-21T03:40:05.910Z,7.10
2018-11-21T03:42:32.507Z,7.75
2018-11-21T03:44:59.373Z,10.25
2018-11-21T03:47:26.031Z,8.13
2018-11-21T03:49:52.769Z,9.73
2018-11-21T03:52:19.556Z,8.50
2018-11-21T03:54:46.495Z,8.45
2018-11-21T03:57:13.676Z,10.63
2018-11-21T03:59:40.549Z,8.68
2018-11-21T04:02:07.397Z,8.33
2018-11-21T04:04:34.296Z,7.33
2018-11-21T04:07:01.341Z,8.28
2018-11-21T04:09:28.174Z,10.40
2018-11-21T04:11:54.758Z,9.45
2018-11-21T04:14:21.561Z,7.53
2018-11-21T04:16:48.163Z,8.10
2018-11-21T04:19:14.935Z,8.80
2018-11-21T04:21:41.893Z,7.12
2018-11-21T04:24:09.925Z,7.37
2018-11-21T04:26:35.276Z,8.43
2018-11-21T04:29:02.436Z,9.45
2018-11-21T04:31:29.052Z,8.10
2018-11-21T04:33:55.724Z,7.37
2018-11-21T04:36:22.487Z,7.72
2018-11-21T04:38:49.681Z,10.08
2018-11-21T04:41:16.515Z,8.65
2018-11-21T04:43:43.572Z,8.30
2018-11-21T04:46:10.326Z,8.30
2018-11-21T04:48:37.149Z,6.45
2018-11-21T04:51:04.252Z,7.87
2018-11-21T04:53:30.956Z,7.00
2018-11-21T04:55:57.947Z,7.95
2018-11-21T04:58:24.590Z,6.78
2018-11-21T05:00:52.383Z,6.95
2018-11-21T05:03:19.240Z,6.85
2018-11-21T05:05:46.650Z,7.58
2018-11-21T05:08:13.540Z,6.90
2018-11-21T05:10:40.115Z,9.40
2018-11-21T05:13:06.989Z,6.22
2018-11-21T05:15:33.759Z,7.00
2018-11-21T05:18:00.506Z,7.25
2018-11-21T05:20:27.383Z,7.95
2018-11-21T05:22:54.051Z,8.48
2018-11-21T05:25:21.317Z,10.45
2018-11-21T05:27:48.180Z,7.45
2018-11-21T05:30:15.546Z,8.63
2018-11-21T05:32:42.419Z,8.35
2018-11-21T05:35:08.991Z,9.28
2018-11-21T05:37:35.744Z,9.30
2018-11-21T05:40:02.392Z,7.17
2018-11-21T05:42:29.390Z,8.25
2018-11-21T05:44:56.565Z,9.48
2018-11-21T05:47:23.631Z,8.15
2018-11-21T05:49:50.278Z,9.93
2018-11-21T05:52:17.234Z,9.05
2018-11-21T05:54:43.992Z,9.88
2018-11-21T05:57:10.771Z,8.93
2018-11-21T05:59:37.348Z,9.35
2018-11-21T06:02:04.193Z,12.37
2018-11-21T06:04:30.835Z,7.58
2018-11-21T06:06:57.628Z,6.90
2018-11-21T06:09:24.472Z,7.97
2018-11-21T06:11:51.636Z,8.23
2018-11-21T06:14:19.028Z,8.03
2018-11-21T06:16:46.278Z,5.53
2018-11-21T06:19:13.267Z,7.72
2018-11-21T06:21:40.139Z,13.68
2018-11-21T06:24:06.799Z,14.33
2018-11-21T06:26:34.277Z,9.90
2018-11-21T06:29:00.998Z,8.10
2018-11-21T06:31:28.210Z,9.18
2018-11-21T06:33:54.860Z,10.53
2018-11-21T06:36:21.618Z,7.47
2018-11-21T06:38:48.792Z,10.65
2018-11-21T06:41:15.565Z,13.05
2018-11-21T06:43:42.477Z,12.50
2018-11-21T06:46:09.106Z,14.80
2018-11-21T06:48:35.862Z,13.08
2018-11-21T06:51:02.769Z,11.63
2018-11-21T06:53:29.476Z,13.22
2018-11-21T06:55:56.638Z,11.80
2018-11-21T06:58:23.319Z,14.55
2018-11-21T07:00:50.164Z,16.05
2018-11-21T07:03:17.148Z,19.02
2018-11-21T07:05:43.997Z,18.82
2018-11-21T07:08:10.664Z,14.30
2018-11-21T07:10:37.321Z,9.80
2018-11-21T07:13:04.185Z,9.70
2018-11-21T07:15:30.817Z,10.03
2018-11-21T07:17:57.402Z,9.05
2018-11-21T07:20:24.266Z,13.10
2018-11-21T07:22:51.325Z,10.08
2018-11-21T07:25:17.906Z,9.35
2018-11-21T07:27:44.770Z,9.98
2018-11-21T07:30:11.417Z,12.60
2018-11-21T07:32:38.185Z,12.93
2018-11-21T07:35:05.160Z,10.32
2018-11-21T07:37:32.285Z,10.58
2018-11-21T07:39:58.791Z,9.20
2018-11-21T07:42:25.482Z,9.15
2018-11-21T07:44:52.119Z,8.80
2018-11-21T07:47:19.075Z,9.28
2018-11-21T07:49:46.305Z,9.08
2018-11-21T07:52:13.119Z,9.95
2018-11-21T07:54:39.867Z,14.18
2018-11-21T07:57:06.540Z,10.13
2018-11-21T07:59:33.033Z,9.78
2018-11-21T08:01:59.803Z,13.90
2018-11-21T08:04:26.663Z,9.43
2018-11-21T08:06:54.212Z,9.10
2018-11-21T08:09:20.999Z,11.97
2018-11-21T08:11:48.102Z,10.55
2018-11-21T08:14:16.600Z,10.30
2018-11-21T08:16:43.129Z,8.20
2018-11-21T08:19:09.739Z,9.20
2018-11-21T08:21:36.447Z,9.30
2018-11-21T08:24:03.180Z,7.75
2018-11-21T08:26:30.026Z,9.50
2018-11-21T08:28:56.683Z,9.10
2018-11-21T08:31:23.345Z,10.98
2018-11-21T08:33:49.883Z,14.07
2018-11-21T08:36:16.563Z,9.15
2018-11-21T08:38:43.109Z,13.20
2018-11-21T08:41:09.649Z,8.93
2018-11-21T08:43:36.345Z,8.08
2018-11-21T08:46:02.879Z,8.83
2018-11-21T08:48:29.457Z,10.98
2018-11-21T08:50:56.069Z,8.38
2018-11-21T08:53:22.869Z,8.50
2018-11-21T08:55:49.663Z,8.75
2018-11-21T08:58:16.310Z,10.50
2018-11-21T09:00:44.325Z,8.85
2018-11-21T09:03:10.956Z,8.75
2018-11-21T09:05:37.512Z,9.13
2018-11-21T09:08:04.259Z,7.92
2018-11-21T09:12:57.185Z,10.00
2018-11-21T09:15:23.855Z,7.72
2018-11-21T09:17:50.405Z,7.87
2018-11-21T09:20:18.379Z,7.72
2018-11-21T09:22:44.950Z,8.75
2018-11-21T09:25:11.490Z,10.00
2018-11-21T09:27:38.177Z,7.30
2018-11-21T09:30:04.685Z,7.15
2018-11-21T09:32:31.506Z,8.85
2018-11-21T09:34:58.307Z,8.25
2018-11-21T09:37:25.141Z,8.23
2018-11-21T09:39:51.776Z,9.95
2018-11-21T09:42:18.859Z,9.83
2018-11-21T09:44:45.309Z,10.28
2018-11-21T09:47:11.976Z,10.00
2018-11-21T09:49:38.637Z,8.38
2018-11-21T09:52:07.389Z,11.60
2018-11-21T09:54:34.086Z,11.85
2018-11-21T09:57:01.852Z,9.60
2018-11-21T09:59:28.482Z,8.28
2018-11-21T10:01:55.180Z,10.63
2018-11-21T10:04:21.867Z,13.83
2018-11-21T10:06:48.423Z,9.45
2018-11-21T10:09:15.021Z,10.13
2018-11-21T10:11:41.731Z,11.68
2018-11-21T10:14:08.268Z,14.90
2018-11-21T10:16:34.862Z,13.62
2018-11-21T10:19:01.396Z,10.40
2018-11-21T10:21:28.570Z,9.45
2018-11-21T10:23:55.252Z,10.20
2018-11-21T10:26:21.802Z,8.98
2018-11-21T10:28:48.466Z,9.88
2018-11-21T10:31:14.995Z,10.35
2018-11-21T10:33:41.577Z,11.15
2018-11-21T10:36:08.218Z,13.83
2018-11-21T10:38:34.788Z,12.28
2018-11-21T10:41:01.365Z,13.15
2018-11-21T10:43:28.492Z,11.35
2018-11-21T10:45:54.894Z,12.53
2018-11-21T10:48:21.835Z,8.83
2018-11-21T10:50:48.393Z,9.88
2018-11-21T10:53:15.064Z,10.15
2018-11-21T10:55:41.716Z,10.68
2018-11-21T10:58:08.367Z,10.48
2018-11-21T11:00:35.049Z,9.70
2018-11-21T11:03:01.717Z,14.18
2018-11-21T11:05:28.370Z,10.43
2018-11-21T11:07:55.127Z,9.58
2018-11-21T11:10:21.891Z,9.30
2018-11-21T11:12:48.550Z,9.23
2018-11-21T11:15:15.126Z,12.70
2018-11-21T11:17:41.749Z,11.63
2018-11-21T11:20:08.706Z,12.63
2018-11-21T11:22:34.989Z,10.50
2018-11-21T11:25:01.660Z,11.25
2018-11-21T11:27:28.315Z,11.30
2018-11-21T11:29:55.064Z,10.70
2018-11-21T11:32:21.925Z,10.90
2018-11-21T11:34:48.584Z,10.23
2018-11-21T11:37:15.269Z,11.20
2018-11-21T11:39:41.831Z,9.63
2018-11-21T11:42:08.573Z,9.95
2018-11-21T11:44:35.297Z,13.22
2018-11-21T11:47:02.322Z,10.32
2018-11-21T11:49:29.001Z,12.55
2018-11-21T11:51:55.725Z,12.07
2018-11-21T11:54:22.619Z,11.85
2018-11-21T11:56:49.162Z,9.70
2018-11-21T11:59:15.696Z,10.70
2018-11-21T12:01:43.590Z,13.40
2018-11-21T12:04:10.262Z,11.95
2018-11-21T12:06:36.802Z,13.03
2018-11-21T12:09:03.392Z,13.53
2018-11-21T12:11:30.143Z,13.38
2018-11-21T12:13:57.009Z,10.28
2018-11-21T12:16:23.887Z,15.15
2018-11-21T12:18:50.429Z,11.60
2018-11-21T12:21:17.096Z,16.60
2018-11-21T12:23:43.641Z,13.38
2018-11-21T12:26:10.767Z,15.43
2018-11-21T12:28:36.861Z,16.00
2018-11-21T12:31:03.613Z,13.50
2018-11-21T12:33:30.304Z,15.38
2018-11-21T12:35:57.076Z,13.05
2018-11-21T12:38:23.906Z,14.65
2018-11-21T12:40:50.478Z,14.63
2018-11-21T12:43:17.077Z,16.85
2018-11-21T12:45:43.750Z,16.10
2018-11-21T12:48:10.523Z,17.25
2018-11-21T12:50:36.997Z,20.02
2018-11-21T12:53:03.760Z,14.45
2018-11-21T12:55:30.304Z,18.12
2018-11-21T12:57:56.899Z,18.55
2018-11-21T13:00:23.546Z,18.70
2018-11-21T13:02:50.218Z,22.25
2018-11-21T13:05:16.744Z,12.07
2018-11-21T13:07:43.446Z,19.52
2018-11-21T13:10:10.199Z,17.55
2018-11-21T13:12:36.752Z,18.55
2018-11-21T13:15:03.417Z,16.17
2018-11-21T13:17:29.944Z,14.78
2018-11-21T13:19:56.623Z,17.48
2018-11-21T13:22:23.291Z,14.45
2018-11-21T13:24:49.819Z,17.10
2018-11-21T13:27:16.368Z,14.58
2018-11-21T13:29:43.045Z,16.25
2018-11-21T13:32:09.694Z,30.70
2018-11-21T13:34:36.257Z,15.93
2018-11-21T13:37:02.928Z,16.25
2018-11-21T13:39:29.473Z,19.67
2018-11-21T13:41:56.027Z,14.73
2018-11-21T13:44:22.602Z,15.15
2018-11-21T13:46:49.364Z,14.28
2018-11-21T13:49:16.013Z,17.25
2018-11-21T13:51:42.990Z,17.45
2018-11-21T13:54:09.235Z,16.20
2018-11-21T13:56:35.684Z,19.45
2018-11-21T13:59:02.443Z,16.05
2018-11-21T14:01:29.000Z,18.05
2018-11-21T14:03:55.702Z,14.85
2018-11-21T14:06:22.349Z,15.00
2018-11-21T14:08:49.010Z,15.32
2018-11-21T14:11:15.547Z,16.50
2018-11-21T14:13:42.216Z,17.40
2018-11-21T14:16:08.864Z,13.62
2018-11-21T14:18:35.745Z,12.25
2018-11-21T14:21:02.507Z,12.50
2018-11-21T14:23:29.266Z,13.88
2018-11-21T14:25:55.826Z,12.50
2018-11-21T14:28:22.589Z,19.35
2018-11-21T14:30:49.248Z,13.00
2018-11-21T14:33:15.706Z,14.18
2018-11-21T14:35:42.469Z,15.48
2018-11-21T14:38:09.342Z,20.00
2018-11-21T14:40:36.193Z,16.87
2018-11-21T14:43:02.754Z,18.00
2018-11-21T14:45:29.412Z,13.75
2018-11-21T14:47:56.076Z,11.90
2018-11-21T14:50:23.241Z,15.70
2018-11-21T14:52:49.792Z,14.18
2018-11-21T14:55:16.542Z,13.60
2018-11-21T14:57:43.162Z,15.18
2018-11-21T15:00:09.786Z,16.77
2018-11-21T15:02:36.447Z,16.65
2018-11-21T15:05:03.940Z,14.90
2018-11-21T15:07:30.688Z,11.70
2018-11-21T15:09:57.353Z,14.20
2018-11-21T15:12:23.880Z,14.10
2018-11-21T15:14:50.566Z,13.68
2018-11-21T15:17:17.240Z,13.18
2018-11-21T15:19:43.808Z,17.32
2018-11-21T15:22:10.350Z,14.85
2018-11-21T15:24:37.898Z,11.88
2018-11-21T15:27:04.692Z,14.15
2018-11-21T15:29:31.565Z,13.95
2018-11-21T15:31:58.256Z,12.33
2018-11-21T15:34:25.273Z,11.90
2018-11-21T15:36:52.022Z,17.90
2018-11-21T15:39:18.594Z,17.05
2018-11-21T15:41:45.238Z,20.50
2018-11-21T15:44:11.830Z,14.98
2018-11-21T15:46:38.395Z,15.63
2018-11-21T15:49:07.272Z,13.38
2018-11-21T15:51:32.044Z,13.28
2018-11-21T15:53:58.916Z,12.60
2018-11-21T15:56:25.561Z,16.10
2018-11-21T15:58:52.198Z,17.80
2018-11-21T16:01:18.749Z,17.52
2018-11-21T16:03:45.376Z,15.80
2018-11-21T16:06:11.964Z,13.75
2018-11-21T16:08:38.642Z,12.35
2018-11-21T16:11:05.556Z,12.25
2018-11-21T16:13:32.372Z,13.25
2018-11-21T16:16:01.951Z,13.13
2018-11-21T16:18:28.435Z,12.65
2018-11-21T16:20:55.085Z,9.83
2018-11-21T16:23:21.719Z,13.00
2018-11-21T16:25:48.297Z,12.15
2018-11-21T16:28:14.927Z,10.72
2018-11-21T16:30:41.453Z,13.50
2018-11-21T16:33:08.629Z,11.50
2018-11-21T16:35:35.673Z,13.65
2018-11-21T16:38:02.365Z,13.28
2018-11-21T16:40:28.994Z,19.92
2018-11-21T16:42:56.874Z,11.33
2018-11-21T16:45:23.429Z,14.38
2018-11-21T16:47:50.213Z,14.07
2018-11-21T16:50:16.831Z,14.87
2018-11-21T16:52:43.435Z,17.30
2018-11-21T16:55:10.204Z,15.10
2018-11-21T16:57:36.764Z,15.35
2018-11-21T17:00:03.502Z,12.93
2018-11-21T17:02:30.295Z,15.72
2018-11-21T17:04:57.033Z,15.58
2018-11-21T17:07:23.579Z,15.38
2018-11-21T17:09:50.209Z,20.25
2018-11-21T17:12:16.902Z,21.50
2018-11-21T17:14:43.556Z,18.10
2018-11-21T17:17:10.211Z,17.45
2018-11-21T17:19:37.265Z,19.50
2018-11-21T17:22:04.179Z,19.37
2018-11-21T17:24:30.668Z,17.52
2018-11-21T17:26:57.285Z,16.60
2018-11-21T17:29:23.841Z,18.67
2018-11-21T17:31:50.702Z,18.98
2018-11-21T17:34:17.809Z,15.65
2018-11-21T17:36:44.428Z,18.10
2018-11-21T17:39:11.098Z,15.80
2018-11-21T17:41:38.077Z,18.30
2018-11-21T17:44:04.630Z,19.12
2018-11-21T17:46:31.144Z,15.70
2018-11-21T17:48:58.144Z,20.25
2018-11-21T17:51:26.654Z,18.00
2018-11-21T17:53:51.371Z,15.60
2018-11-21T17:56:18.089Z,17.42
2018-11-21T17:58:44.704Z,16.75
2018-11-21T18:01:11.342Z,18.80
2018-11-21T18:03:38.141Z,16.85
2018-11-21T18:06:05.056Z,19.57
2018-11-21T18:08:31.515Z,14.95
2018-11-21T18:10:58.457Z,19.82
2018-11-21T18:13:25.276Z,18.55
2018-11-21T18:15:52.017Z,18.60
2018-11-21T18:18:18.976Z,18.80
2018-11-21T18:20:45.798Z,18.12
2018-11-21T18:23:13.402Z,17.25
2018-11-21T18:25:40.234Z,17.50
2018-11-21T18:28:07.047Z,22.87
2018-11-21T18:30:33.805Z,19.70
2018-11-21T18:33:00.499Z,19.85
2018-11-21T18:35:27.469Z,19.48
2018-11-21T18:37:54.204Z,23.18
2018-11-21T18:40:20.868Z,15.25
2018-11-21T18:42:47.603Z,17.25
2018-11-21T18:45:14.021Z,18.23
2018-11-21T18:47:40.903Z,17.85
2018-11-21T18:50:11.118Z,19.77
2018-11-21T18:52:34.106Z,19.25
2018-11-21T18:55:00.726Z,18.00
2018-11-21T18:57:27.412Z,18.90
2018-11-21T18:59:54.068Z,22.80
2018-11-21T19:02:20.717Z,21.60
2018-11-21T19:04:47.144Z,20.90
2018-11-21T19:07:13.747Z,22.02
2018-11-21T19:09:40.330Z,19.20
2018-11-21T19:12:07.026Z,23.18
2018-11-21T19:14:33.587Z,23.38
2018-11-21T19:17:00.467Z,21.40
2018-11-21T19:19:27.167Z,24.75
2018-11-21T19:21:54.046Z,19.73
2018-11-21T19:24:20.647Z,16.52
2018-11-21T19:26:47.367Z,20.27
2018-11-21T19:29:14.147Z,18.95
2018-11-21T19:31:40.948Z,17.67
2018-11-21T19:34:07.506Z,19.17
2018-11-21T19:36:34.372Z,22.95
2018-11-21T19:39:01.115Z,20.17
2018-11-21T19:41:27.831Z,17.70
2018-11-21T19:43:54.378Z,18.48
2018-11-21T19:46:21.183Z,14.50
2018-11-21T19:48:47.674Z,25.08
2018-11-21T19:51:14.174Z,17.17
2018-11-21T19:56:07.881Z,18.57
2018-11-21T19:58:34.439Z,18.65
2018-11-21T20:01:01.047Z,17.27
2018-11-21T20:03:27.602Z,18.10
2018-11-21T20:05:54.197Z,18.17
2018-11-21T20:08:21.459Z,17.07
2018-11-21T20:10:48.264Z,20.02
2018-11-21T20:13:14.781Z,16.40
2018-11-21T20:15:41.693Z,17.52
2018-11-21T20:18:08.415Z,15.08
2018-11-21T20:20:35.071Z,21.00
2018-11-21T20:23:06.523Z,21.70
2018-11-21T20:25:28.659Z,16.42
2018-11-21T20:27:55.371Z,16.80
2018-11-21T20:30:22.421Z,20.82
2018-11-21T20:32:49.181Z,16.30
2018-11-21T20:35:15.981Z,18.55
2018-11-21T20:37:42.735Z,19.10
2018-11-21T20:40:09.580Z,17.70
2018-11-21T20:42:36.254Z,16.73
2018-11-21T20:45:03.205Z,18.10
2018-11-21T20:47:29.834Z,16.80
2018-11-21T20:49:56.335Z,17.05
2018-11-21T20:52:22.902Z,16.32
2018-11-21T20:54:49.413Z,17.20
2018-11-21T20:57:16.673Z,19.12
2018-11-21T20:59:43.394Z,18.35
2018-11-21T21:02:10.079Z,16.70
2018-11-21T21:04:36.622Z,23.62
2018-11-21T21:07:03.362Z,21.23
2018-11-21T21:09:30.017Z,22.55
2018-11-21T21:11:56.653Z,20.23
2018-11-21T21:14:23.235Z,18.70
2018-11-21T21:16:49.896Z,16.80
2018-11-21T21:19:16.864Z,17.10
2018-11-21T21:21:43.756Z,17.25
2018-11-21T21:24:10.223Z,15.95
2018-11-21T21:26:36.853Z,19.73
2018-11-21T21:29:03.614Z,18.75
2018-11-21T21:31:30.120Z,17.35
2018-11-21T21:33:56.793Z,18.40
2018-11-21T21:36:23.588Z,18.40
2018-11-21T21:38:50.359Z,28.15
2018-11-21T21:41:17.019Z,23.18
2018-11-21T21:43:43.839Z,18.20
2018-11-21T21:46:10.349Z,19.92
2018-11-21T21:48:37.126Z,20.65
2018-11-21T21:51:04.153Z,17.57
2018-11-21T21:53:31.308Z,24.45
2018-11-21T21:55:58.120Z,17.67
2018-11-21T21:58:24.843Z,20.05
2018-11-21T22:00:54.829Z,20.20
2018-11-21T22:03:21.875Z,20.35
2018-11-21T22:05:48.797Z,18.55
2018-11-21T22:08:15.644Z,19.02
2018-11-21T22:10:42.302Z,20.10
2018-11-21T22:13:08.941Z,19.20
2018-11-21T22:15:35.577Z,21.85
2018-11-21T22:18:02.218Z,20.35
2018-11-21T22:20:28.989Z,17.73
2018-11-21T22:22:58.563Z,17.15
2018-11-21T22:25:25.467Z,19.55
2018-11-21T22:27:52.140Z,21.77
2018-11-21T22:30:19.083Z,17.90
2018-11-21T22:32:45.811Z,20.05
2018-11-21T22:35:12.978Z,19.40
2018-11-21T22:37:39.618Z,21.02
2018-11-21T22:40:06.306Z,17.77
2018-11-21T22:42:33.032Z,16.15
2018-11-21T22:44:59.439Z,15.38
2018-11-21T22:47:26.066Z,19.75
2018-11-21T22:49:53.222Z,17.10
2018-11-21T22:52:19.880Z,17.80
2018-11-21T22:54:46.380Z,19.85
2018-11-21T22:57:12.994Z,16.77
2018-11-21T22:59:39.503Z,16.37
2018-11-21T23:02:06.103Z,19.17
2018-11-21T23:04:33.024Z,18.85
2018-11-21T23:06:59.790Z,19.62
2018-11-21T23:09:26.521Z,19.48
2018-11-21T23:11:53.228Z,17.52
2018-11-21T23:14:19.914Z,18.85
2018-11-21T23:16:46.370Z,17.05
2018-11-21T23:19:12.963Z,17.87
2018-11-21T23:21:39.586Z,17.32
2018-11-21T23:24:06.155Z,17.17
2018-11-21T23:26:33.403Z,15.03
2018-11-21T23:29:00.266Z,18.05
2018-11-21T23:31:27.157Z,16.62
2018-11-21T23:33:54.144Z,16.00
2018-11-21T23:36:20.553Z,15.70
2018-11-21T23:38:47.205Z,17.00
2018-11-21T23:41:13.911Z,18.60
2018-11-21T23:43:40.612Z,15.53
2018-11-21T23:46:07.218Z,16.77
2018-11-21T23:48:34.203Z,18.42
2018-11-21T23:51:01.155Z,21.60
2018-11-21T23:53:27.915Z,17.98
2018-11-21T23:55:54.817Z,23.45
2018-11-21T23:58:21.441Z,18.35
